Time;durP1;ratioP1;P1;durP2;ratioP2;P2;SDS_P1;SDS_P2;PMS_P1;PMS_P2;Temp;Humidity;BMP_temperature;BMP_pressure;BME280_temperature;BME280_humidity;BME280_pressure;Samples;Min_cycle;Max_cycle;Signal;HPM_P1;HPM_P2
2022/02/03 00:02:37;;;;;;;21.50;14.60;;;23.10;91.70;;;;;;1910054;74;21142;-81
2022/02/03 00:05:06;;;;;;;24.00;18.17;;;23.10;91.80;;;;;;1902275;74;21088;-82
2022/02/03 00:25:31;;;;;;;37.98;23.92;;;23.10;92.80;;;;;;1949048;73;21535;-82
2022/02/03 00:28:11;;;;;;;31.80;21.73;;;23.10;92.80;;;;;;1956835;71;21168;-81
2022/02/03 00:33:24;;;;;;;31.68;21.07;;;23.10;92.70;;;;;;1881668;74;21170;-82
2022/02/03 00:36:02;;;;;;;31.37;22.40;;;23.10;92.70;;;;;;1882365;74;21607;-81
2022/02/03 00:48:53;;;;;;;33.10;21.17;;;23.20;92.90;;;;;;1965081;71;21096;-81
2022/02/03 00:51:14;;;;;;;28.87;20.97;;;23.20;92.80;;;;;;1977368;71;21128;-81
2022/02/03 00:53:46;;;;;;;31.05;20.88;;;23.30;92.80;;;;;;1969613;71;21128;-81
2022/02/03 00:56:19;;;;;;;29.65;17.92;;;23.30;92.70;;;;;;1965959;71;21859;-82
2022/02/03 00:58:52;;;;;;;22.58;16.07;;;23.30;92.40;;;;;;1947189;71;21495;-81
2022/02/03 01:01:25;;;;;;;22.55;15.25;;;23.30;92.20;;;;;;1973303;71;21150;-81
2022/02/03 01:03:58;;;;;;;18.12;12.98;;;23.30;91.90;;;;;;1957632;71;21090;-82
2022/02/03 01:06:31;;;;;;;17.05;11.88;;;23.40;91.60;;;;;;1976211;71;21055;-81
2022/02/03 01:09:03;;;;;;;20.25;13.13;;;23.40;91.30;;;;;;1960480;71;21576;-81
2022/02/03 01:11:40;;;;;;;18.67;12.65;;;23.40;91.00;;;;;;1921753;71;21115;-80
2022/02/03 01:14:16;;;;;;;18.98;12.88;;;23.40;91.00;;;;;;1952792;71;21615;-80
2022/02/03 01:34:44;;;;;;;24.12;16.17;;;23.70;91.30;;;;;;1902866;74;21112;-81
2022/02/03 01:37:22;;;;;;;24.20;18.05;;;23.70;90.90;;;;;;1879069;75;21183;-80
2022/02/03 01:52:23;;;;;;;26.37;18.82;;;23.80;91.00;;;;;;1897792;74;21116;-81
2022/02/03 01:54:57;;;;;;;27.17;19.35;;;23.80;91.10;;;;;;1902524;75;21131;-80
2022/02/03 01:57:30;;;;;;;26.68;19.42;;;23.80;91.10;;;;;;1888978;75;21193;-82
2022/02/03 02:00:04;;;;;;;32.10;21.07;;;23.90;91.20;;;;;;1904242;74;21630;-81
2022/02/03 02:02:36;;;;;;;33.05;21.57;;;23.90;91.20;;;;;;1913059;74;21165;-82
2022/02/03 02:05:09;;;;;;;32.25;19.50;;;24.00;91.30;;;;;;1892274;75;21158;-81
2022/02/03 02:07:42;;;;;;;24.92;16.57;;;24.00;91.60;;;;;;1896101;75;21143;-81
2022/02/03 02:13:03;;;;;;;25.35;15.38;;;24.10;90.70;;;;;;1892015;75;21079;-81
2022/02/03 02:15:54;;;;;;;18.67;12.10;;;24.10;90.70;;;;;;1885327;75;21288;-80
2022/02/03 02:41:47;;;;;;;13.98;6.97;;;24.60;86.40;;;;;;1955701;72;21131;-82
2022/02/03 02:43:35;;;;;;;10.93;7.05;;;24.60;85.70;;;;;;1961779;71;21105;-82
2022/02/03 02:46:06;;;;;;;12.15;6.85;;;24.60;85.60;;;;;;1968740;71;21061;-81
2022/02/03 02:48:38;;;;;;;10.40;6.42;;;24.70;85.10;;;;;;1961817;71;21096;-83
2022/02/03 02:51:14;;;;;;;9.15;6.17;;;24.70;85.20;;;;;;1956338;72;21237;-81
2022/02/03 02:54:05;;;;;;;10.60;6.47;;;24.70;85.40;;;;;;1972061;71;21125;-81
2022/02/03 02:59:11;;;;;;;9.50;6.85;;;24.80;84.30;;;;;;1957307;72;21314;-82
2022/02/03 03:04:29;;;;;;;10.72;6.92;;;24.90;83.90;;;;;;1962475;71;21143;-81
2022/02/03 03:37:28;;;;;;;8.38;6.58;;;25.70;81.10;;;;;;1950441;72;21571;-81
2022/02/03 03:39:52;;;;;;;10.15;6.30;;;25.70;81.30;;;;;;1959510;72;21098;-83
2022/02/03 03:42:25;;;;;;;9.28;6.03;;;25.80;81.30;;;;;;1960624;71;21228;-83
2022/02/03 03:44:57;;;;;;;8.45;6.33;;;25.90;81.00;;;;;;1958759;72;21150;-81
2022/02/03 03:47:30;;;;;;;12.58;6.67;;;26.00;80.40;;;;;;1949022;73;21181;-82
2022/02/03 03:50:04;;;;;;;9.18;6.25;;;26.10;80.00;;;;;;1968509;72;21096;-83
2022/02/03 03:52:43;;;;;;;9.40;5.85;;;26.20;79.80;;;;;;1974450;71;21588;-82
2022/02/03 03:55:19;;;;;;;8.35;6.03;;;26.30;80.30;;;;;;1916688;74;21716;-83
2022/02/03 04:31:51;;;;;;;9.40;5.75;;;27.60;75.40;;;;;;1955610;72;21520;-82
2022/02/03 04:34:01;;;;;;;11.05;6.45;;;27.60;75.50;;;;;;1966702;71;21769;-81
2022/02/03 04:39:27;;;;;;;7.90;6.05;;;27.70;74.60;;;;;;1907250;74;21635;-82
2022/02/03 04:41:59;;;;;;;8.88;6.33;;;27.80;74.40;;;;;;1978412;71;21139;-82
2022/02/03 04:44:39;;;;;;;8.28;5.55;;;27.90;74.30;;;;;;1941823;73;21120;-81
2022/02/03 04:52:48;;;;;;;10.08;6.70;;;27.90;74.50;;;;;;1977951;71;21080;-82
2022/02/03 04:57:14;;;;;;;9.30;6.75;;;28.00;73.30;;;;;;1923565;73;21499;-82
2022/02/03 05:07:28;;;;;;;7.62;6.42;;;28.50;73.00;;;;;;1892461;75;21802;-83
2022/02/03 05:10:05;;;;;;;11.18;7.05;;;28.50;72.40;;;;;;1959713;71;21157;-83
2022/02/03 05:18:04;;;;;;;9.50;6.87;;;28.80;71.30;;;;;;1902788;74;21173;-81
2022/02/03 05:46:02;;;;;;;10.93;7.37;;;29.30;70.10;;;;;;1969767;72;21119;-82
2022/02/03 05:48:53;;;;;;;10.70;7.20;;;29.30;69.80;;;;;;1964936;72;21119;-82
2022/02/03 06:09:00;;;;;;;11.70;8.23;;;29.50;69.20;;;;;;1968830;71;21123;-82
2022/02/03 06:14:04;;;;;;;12.13;7.87;;;29.60;70.00;;;;;;1962933;73;21619;-82
2022/02/03 06:16:37;;;;;;;11.22;7.58;;;29.60;69.70;;;;;;1958282;73;21263;-82
2022/02/03 06:21:29;;;;;;;10.70;7.50;;;29.60;69.50;;;;;;1957494;72;21056;-82
2022/02/03 06:24:01;;;;;;;10.23;8.20;;;29.50;70.20;;;;;;1942767;72;21053;-82
2022/02/03 06:29:04;;;;;;;12.60;9.10;;;29.40;69.40;;;;;;1936390;73;21088;-82
2022/02/03 06:31:36;;;;;;;11.60;9.35;;;29.40;69.60;;;;;;1951647;72;21658;-82
2022/02/03 06:34:08;;;;;;;11.48;8.25;;;29.40;70.10;;;;;;1953579;73;21120;-82
2022/02/03 06:36:41;;;;;;;12.65;7.97;;;29.30;70.40;;;;;;1959760;73;21165;-82
2022/02/03 06:39:14;;;;;;;11.43;8.98;;;29.30;70.40;;;;;;1974899;72;21138;-82
2022/02/03 06:41:49;;;;;;;10.90;8.15;;;29.40;70.70;;;;;;1983209;71;21092;-84
2022/02/03 06:44:20;;;;;;;13.60;8.45;;;29.30;70.10;;;;;;1980400;71;21139;-82
2022/02/03 06:46:53;;;;;;;11.18;8.18;;;29.30;70.10;;;;;;1969183;73;21575;-82
2022/02/03 06:52:08;;;;;;;11.20;8.53;;;29.20;70.50;;;;;;1951798;73;21658;-82
2022/02/03 06:54:39;;;;;;;13.40;8.25;;;29.20;70.80;;;;;;1951511;73;21205;-83
2022/02/03 06:57:03;;;;;;;14.95;8.48;;;29.10;70.60;;;;;;1933164;72;21103;-82
2022/02/03 06:59:46;;;;;;;9.53;8.40;;;29.30;70.90;;;;;;1978329;71;21603;-83
2022/02/03 07:02:03;;;;;;;11.43;8.63;;;29.30;70.20;;;;;;1967179;72;21139;-83
2022/02/03 07:04:41;;;;;;;15.65;8.58;;;29.40;70.00;;;;;;1960742;73;21128;-82
2022/02/03 07:07:06;;;;;;;9.78;7.85;;;29.50;69.80;;;;;;1957948;71;21119;-81
2022/02/03 07:09:37;;;;;;;12.00;8.63;;;29.50;69.50;;;;;;1969228;73;21551;-82
2022/02/03 07:12:09;;;;;;;13.03;8.43;;;29.50;69.20;;;;;;1958804;73;21575;-82
2022/02/03 07:14:40;;;;;;;11.50;7.78;;;29.60;69.20;;;;;;1931653;72;21127;-82
2022/02/03 07:17:12;;;;;;;12.80;8.38;;;29.60;69.60;;;;;;1969858;71;21520;-83
2022/02/03 07:19:47;;;;;;;9.58;7.58;;;29.60;69.70;;;;;;1968675;73;21161;-83
2022/02/03 07:22:16;;;;;;;11.75;8.25;;;29.70;69.50;;;;;;1920574;74;21133;-82
2022/02/03 07:24:51;;;;;;;11.00;8.45;;;29.70;69.30;;;;;;1890876;75;21273;-82
2022/02/03 07:27:22;;;;;;;10.55;8.13;;;29.70;69.10;;;;;;1910457;75;21180;-82
2022/02/03 07:29:54;;;;;;;13.55;7.97;;;29.70;68.80;;;;;;1904157;75;21578;-83
2022/02/03 07:32:25;;;;;;;13.58;7.95;;;29.80;68.90;;;;;;1903754;74;21080;-82
2022/02/03 07:34:57;;;;;;;12.45;8.00;;;29.80;69.30;;;;;;1881426;76;21151;-83
2022/02/03 07:37:28;;;;;;;10.75;8.30;;;29.80;69.00;;;;;;1884248;75;21133;-82
2022/02/03 07:40:00;;;;;;;9.13;8.05;;;29.90;69.50;;;;;;1902824;74;21149;-83
2022/02/03 07:42:31;;;;;;;11.60;8.78;;;29.90;68.70;;;;;;1911600;75;21137;-83
2022/02/03 07:45:02;;;;;;;10.90;8.28;;;29.90;68.80;;;;;;1922574;74;21249;-84
2022/02/03 07:47:33;;;;;;;12.33;8.88;;;29.90;69.00;;;;;;1874417;76;21148;-82
2022/02/03 07:50:06;;;;;;;12.75;8.60;;;29.90;68.80;;;;;;1930101;73;21156;-83
2022/02/03 07:52:37;;;;;;;11.10;8.73;;;29.90;68.90;;;;;;1903899;75;21063;-83
2022/02/03 07:55:09;;;;;;;13.45;9.30;;;29.80;69.00;;;;;;1939353;74;21535;-83
2022/02/03 07:57:44;;;;;;;10.72;8.63;;;29.80;69.00;;;;;;1939231;74;21142;-84
2022/02/03 08:00:17;;;;;;;9.90;8.83;;;29.80;69.00;;;;;;1878048;75;21146;-84
2022/02/03 08:02:49;;;;;;;10.85;8.93;;;29.80;69.00;;;;;;1877824;76;21145;-84
2022/02/03 08:05:21;;;;;;;11.03;8.55;;;29.70;68.90;;;;;;1905299;75;22008;-85
2022/02/03 08:08:05;;;;;;;10.08;8.60;;;29.70;69.40;;;;;;1925695;74;21210;-84
2022/02/03 08:10:35;;;;;;;12.60;9.20;;;29.70;69.80;;;;;;1883354;74;21122;-84
2022/02/03 08:13:06;;;;;;;12.50;9.65;;;29.70;70.00;;;;;;1909028;74;21077;-84
2022/02/03 08:15:39;;;;;;;13.95;9.83;;;29.60;70.00;;;;;;1904081;75;21123;-83
2022/02/03 08:18:14;;;;;;;12.85;9.08;;;29.60;69.50;;;;;;1904353;75;21072;-83
2022/02/03 08:20:48;;;;;;;10.82;8.50;;;29.60;69.70;;;;;;1913916;74;21126;-82
2022/02/03 08:26:03;;;;;;;15.60;10.43;;;29.70;69.70;;;;;;1963439;72;21660;-81
2022/02/03 08:30:59;;;;;;;13.28;8.93;;;29.70;70.30;;;;;;1952631;73;22656;-81
2022/02/03 08:33:21;;;;;;;13.70;9.48;;;29.70;70.00;;;;;;1958684;73;21185;-81
2022/02/03 08:35:51;;;;;;;11.90;8.88;;;29.70;69.70;;;;;;1963953;73;21070;-86
2022/02/03 08:38:34;;;;;;;11.95;9.65;;;29.70;69.90;;;;;;1956727;73;21115;-83
2022/02/03 08:43:25;;;;;;;13.28;10.45;;;29.70;69.50;;;;;;1965190;72;21496;-83
2022/02/03 08:45:56;;;;;;;13.72;9.98;;;29.70;69.30;;;;;;1960252;72;21258;-83
2022/02/03 08:48:28;;;;;;;13.88;11.15;;;29.70;69.30;;;;;;1955858;72;21547;-83
2022/02/03 08:51:01;;;;;;;13.53;10.58;;;29.70;69.10;;;;;;1960100;72;21139;-83
2022/02/03 09:38:29;;;;;;;12.70;10.35;;;29.60;69.50;;;;;;1942559;72;21141;-84
2022/02/03 09:40:52;;;;;;;11.85;10.18;;;29.50;69.40;;;;;;1958173;72;21151;-82
2022/02/03 09:58:41;;;;;;;11.83;10.15;;;29.40;69.70;;;;;;1959289;72;21208;-82
2022/02/03 10:01:10;;;;;;;11.15;9.75;;;29.40;69.70;;;;;;1954508;72;21143;-83
2022/02/03 10:06:13;;;;;;;15.70;11.15;;;29.30;69.80;;;;;;1960088;72;21054;-83
2022/02/03 10:08:49;;;;;;;14.03;10.05;;;29.30;69.80;;;;;;1966495;72;21077;-81
2022/02/03 10:11:18;;;;;;;13.83;10.45;;;29.30;70.00;;;;;;1961278;72;21413;-81
2022/02/03 10:13:51;;;;;;;15.90;9.70;;;29.20;69.70;;;;;;1959815;73;21163;-82
2022/02/03 10:16:24;;;;;;;13.98;10.68;;;29.20;70.10;;;;;;1964087;72;21056;-82
2022/02/03 10:18:57;;;;;;;14.03;10.80;;;29.20;70.10;;;;;;1959091;72;21175;-81
2022/02/03 10:21:32;;;;;;;16.02;10.82;;;29.10;70.00;;;;;;1956466;72;21089;-82
2022/02/03 10:24:01;;;;;;;13.20;10.35;;;29.10;70.20;;;;;;1958406;72;21112;-82
2022/02/03 10:26:35;;;;;;;13.40;10.28;;;29.10;70.50;;;;;;1961786;72;21600;-83
2022/02/03 10:29:08;;;;;;;14.80;10.95;;;29.00;70.40;;;;;;1967531;72;21112;-82
2022/02/03 10:31:41;;;;;;;16.60;11.03;;;29.00;70.30;;;;;;1968221;72;21110;-82
2022/02/03 10:34:21;;;;;;;14.87;10.15;;;29.00;70.50;;;;;;1968574;72;21956;-84
2022/02/03 10:44:54;;;;;;;15.15;11.65;;;28.90;70.80;;;;;;1963821;73;21165;-84
2022/02/03 10:58:04;;;;;;;14.25;9.95;;;28.70;71.30;;;;;;1958864;73;21135;-80
2022/02/03 11:12:52;;;;;;;15.58;10.50;;;28.60;71.50;;;;;;1966057;72;21200;-82
2022/02/03 11:15:24;;;;;;;15.63;10.93;;;28.60;71.60;;;;;;1961347;73;21046;-82
2022/02/03 11:17:59;;;;;;;16.57;10.68;;;28.50;71.70;;;;;;1961382;73;21093;-82
2022/02/03 11:20:32;;;;;;;14.63;10.68;;;28.50;71.80;;;;;;1961716;72;21548;-83
2022/02/03 11:26:01;;;;;;;14.20;11.38;;;28.50;72.10;;;;;;1960813;73;21217;-80
2022/02/03 11:51:43;;;;;;;19.82;13.25;;;28.20;74.00;;;;;;1916090;73;21100;-82
2022/02/03 12:01:48;;;;;;;17.23;12.98;;;28.10;74.50;;;;;;1876193;76;21090;-84
2022/02/03 12:12:19;;;;;;;21.50;13.48;;;27.90;75.30;;;;;;1954347;71;21166;-84
2022/02/03 12:14:46;;;;;;;18.45;12.93;;;27.90;75.50;;;;;;1952403;71;21121;-83
2022/02/03 12:17:12;;;;;;;20.05;12.53;;;27.90;75.50;;;;;;1958923;71;21104;-83
2022/02/03 12:19:45;;;;;;;19.42;12.30;;;27.90;75.80;;;;;;1963747;71;21169;-82
2022/02/03 12:22:35;;;;;;;14.93;11.12;;;27.90;76.50;;;;;;1956785;71;21158;-82
2022/02/03 12:24:51;;;;;;;17.30;11.80;;;27.90;76.00;;;;;;1975025;71;21108;-82
2022/02/03 12:27:51;;;;;;;15.35;11.93;;;27.80;76.20;;;;;;1956926;71;21084;-81
2022/02/03 12:30:02;;;;;;;22.35;12.47;;;27.80;76.40;;;;;;1962451;72;21652;-82
2022/02/03 12:40:19;;;;;;;19.50;12.60;;;27.70;76.50;;;;;;1969246;71;21544;-81
2022/02/03 12:42:49;;;;;;;15.00;12.68;;;27.70;76.40;;;;;;1963360;71;21100;-82
2022/02/03 12:45:23;;;;;;;20.62;13.53;;;27.70;76.40;;;;;;1976481;71;21091;-84
2022/02/03 12:47:51;;;;;;;17.65;13.05;;;27.70;76.60;;;;;;1962041;72;21920;-83
2022/02/03 12:50:24;;;;;;;19.07;13.35;;;27.70;76.60;;;;;;1960920;72;21089;-82
2022/02/03 12:52:58;;;;;;;17.60;12.65;;;27.70;76.70;;;;;;1966439;72;21029;-82
2022/02/03 12:55:30;;;;;;;19.20;12.68;;;27.70;76.70;;;;;;1966703;71;21232;-82
2022/02/03 12:58:04;;;;;;;16.25;12.70;;;27.60;76.70;;;;;;1961794;72;21091;-81
2022/02/03 13:00:47;;;;;;;19.57;14.38;;;27.60;76.70;;;;;;1964219;72;21067;-81
2022/02/03 13:03:15;;;;;;;24.97;17.33;;;27.60;76.90;;;;;;1958528;72;21116;-81
2022/02/03 13:05:48;;;;;;;27.32;15.90;;;27.60;76.90;;;;;;1961574;72;21160;-81
2022/02/03 13:08:21;;;;;;;21.12;14.60;;;27.60;77.00;;;;;;1964152;71;21122;-83
2022/02/03 13:10:54;;;;;;;21.20;14.60;;;27.50;77.30;;;;;;1969791;71;21193;-82
2022/02/03 13:13:37;;;;;;;23.70;15.23;;;27.50;77.50;;;;;;1971789;71;21615;-83
2022/02/03 13:15:57;;;;;;;21.07;15.18;;;27.50;77.70;;;;;;1964843;72;21095;-81
2022/02/03 13:18:33;;;;;;;19.00;14.78;;;27.50;78.00;;;;;;1982086;71;21088;-82
2022/02/03 13:21:17;;;;;;;24.30;15.25;;;27.50;78.10;;;;;;1973596;71;21171;-81
2022/02/03 13:23:40;;;;;;;29.98;21.87;;;27.40;78.10;;;;;;1966827;71;21214;-80
2022/02/03 13:26:15;;;;;;;27.55;19.65;;;27.40;78.30;;;;;;1964545;71;21131;-81
2022/02/03 13:28:49;;;;;;;25.02;16.02;;;27.40;78.40;;;;;;1954537;71;21088;-81
2022/02/03 13:31:33;;;;;;;21.25;13.80;;;27.40;78.60;;;;;;1963937;71;21123;-83
2022/02/03 13:33:55;;;;;;;20.25;13.48;;;27.40;78.70;;;;;;1962129;71;21166;-83
2022/02/03 13:36:27;;;;;;;19.57;13.50;;;27.40;78.80;;;;;;1958585;71;21682;-82
2022/02/03 13:39:14;;;;;;;21.35;14.05;;;27.30;78.90;;;;;;1964835;72;21118;-82
2022/02/03 13:41:40;;;;;;;17.70;13.43;;;27.30;78.80;;;;;;1963438;71;21186;-80
2022/02/03 13:44:10;;;;;;;17.23;13.93;;;27.30;79.00;;;;;;1967932;71;21049;-82
2022/02/03 13:46:45;;;;;;;19.35;14.45;;;27.30;79.10;;;;;;1956292;71;21144;-82
2022/02/03 13:49:20;;;;;;;22.48;13.40;;;27.20;79.20;;;;;;1968725;71;21264;-81
2022/02/03 13:51:54;;;;;;;21.30;14.73;;;27.20;79.40;;;;;;1956361;71;21108;-82
2022/02/03 13:54:32;;;;;;;22.82;14.38;;;27.20;80.30;;;;;;1965726;71;21173;-81
2022/02/03 14:15:08;;;;;;;22.37;14.80;;;27.00;79.80;;;;;;1923975;73;21148;-81
2022/02/03 14:17:51;;;;;;;22.62;16.20;;;27.00;80.00;;;;;;1881440;74;21550;-83
2022/02/03 14:23:11;;;;;;;24.18;16.30;;;27.00;80.10;;;;;;1896015;74;21686;-82
2022/02/03 14:27:39;;;;;;;23.83;15.30;;;27.00;80.30;;;;;;1893185;74;21179;-83
2022/02/03 14:30:16;;;;;;;21.12;14.70;;;26.90;80.40;;;;;;1890352;74;21131;-82
2022/02/03 14:32:43;;;;;;;21.15;14.95;;;26.90;80.40;;;;;;1893519;74;21155;-81
2022/02/03 14:35:15;;;;;;;20.57;15.13;;;26.90;80.70;;;;;;1894814;75;21076;-82
2022/02/03 14:38:16;;;;;;;25.20;15.80;;;26.90;80.80;;;;;;1915123;74;21607;-82
2022/02/03 14:42:49;;;;;;;21.85;14.50;;;26.80;81.20;;;;;;1917631;74;21188;-79
2022/02/03 14:45:20;;;;;;;28.07;15.83;;;26.80;81.50;;;;;;1924116;74;21123;-81
2022/02/03 14:47:52;;;;;;;29.45;16.20;;;26.80;81.70;;;;;;1952315;72;21139;-81
2022/02/03 14:50:23;;;;;;;22.27;16.12;;;26.80;81.70;;;;;;1957577;72;21182;-80
2022/02/03 14:53:08;;;;;;;23.07;17.00;;;26.80;82.10;;;;;;1949632;71;21181;-80
2022/02/03 14:58:05;;;;;;;26.20;17.00;;;26.70;82.50;;;;;;1955777;72;21180;-81
2022/02/03 15:00:33;;;;;;;20.68;16.48;;;26.70;83.00;;;;;;1970660;72;21234;-81
2022/02/03 15:03:04;;;;;;;24.52;16.82;;;26.70;83.00;;;;;;1972104;71;21167;-81
2022/02/03 15:05:37;;;;;;;25.17;16.37;;;26.70;83.40;;;;;;1965141;72;21048;-81
2022/02/03 15:08:45;;;;;;;25.10;16.60;;;26.70;83.20;;;;;;1962261;72;21626;-81
2022/02/03 15:10:44;;;;;;;24.18;16.10;;;26.60;83.20;;;;;;1966497;72;21474;-81
2022/02/03 15:15:47;;;;;;;20.45;16.20;;;26.60;83.20;;;;;;1878806;75;21962;-81
2022/02/03 15:18:18;;;;;;;23.35;16.27;;;26.50;83.00;;;;;;1897322;75;21088;-81
2022/02/03 15:20:48;;;;;;;22.15;16.20;;;26.50;83.10;;;;;;1961447;72;21099;-82
2022/02/03 15:23:19;;;;;;;21.87;15.95;;;26.50;83.50;;;;;;1958488;72;21172;-82
2022/02/03 15:25:50;;;;;;;24.63;16.67;;;26.50;83.50;;;;;;1970622;72;21829;-80
2022/02/03 15:28:22;;;;;;;23.25;16.80;;;26.40;83.50;;;;;;1965773;72;21193;-82
2022/02/03 15:30:54;;;;;;;22.73;16.35;;;26.40;82.80;;;;;;1966732;73;21124;-81
2022/02/03 15:33:28;;;;;;;21.37;16.42;;;26.40;83.20;;;;;;1967018;72;21095;-81
2022/02/03 15:36:02;;;;;;;20.23;16.12;;;26.40;83.10;;;;;;1954823;72;21095;-83
2022/02/03 15:38:36;;;;;;;23.32;17.12;;;26.30;83.40;;;;;;1961511;72;21232;-81
2022/02/03 15:41:04;;;;;;;24.75;17.57;;;26.30;83.20;;;;;;1954718;72;21680;-81
2022/02/03 15:43:40;;;;;;;21.20;16.60;;;26.30;83.20;;;;;;1963720;72;21114;-81
2022/02/03 15:46:12;;;;;;;22.65;17.23;;;26.30;83.20;;;;;;1955961;73;21368;-82
2022/02/03 15:48:51;;;;;;;23.85;18.10;;;26.20;83.30;;;;;;1952164;72;21063;-81
2022/02/03 16:19:12;;;;;;;17.48;13.18;;;25.90;82.80;;;;;;1946429;72;21197;-82
2022/02/03 16:21:51;;;;;;;21.23;13.88;;;25.90;82.70;;;;;;1962742;72;21173;-81
2022/02/03 16:52:31;;;;;;;16.85;11.28;;;25.60;82.30;;;;;;1964237;73;21169;-80
2022/02/03 16:54:44;;;;;;;13.08;10.60;;;25.50;82.30;;;;;;1968930;72;21096;-81
2022/02/03 16:57:20;;;;;;;13.18;10.98;;;25.50;82.30;;;;;;1958852;72;21135;-81
2022/02/03 17:00:07;;;;;;;15.45;10.08;;;25.50;82.40;;;;;;1949071;71;21726;-81
2022/02/03 17:02:23;;;;;;;14.83;10.08;;;25.50;82.50;;;;;;1967498;73;21126;-81
2022/02/03 17:04:57;;;;;;;13.53;10.03;;;25.40;82.70;;;;;;1973710;72;21586;-81
2022/02/03 17:07:28;;;;;;;15.50;10.35;;;25.40;82.70;;;;;;1967574;71;21304;-81
2022/02/03 17:09:58;;;;;;;12.68;9.40;;;25.30;82.70;;;;;;1904595;73;21112;-81
2022/02/03 17:12:29;;;;;;;11.43;8.33;;;25.30;82.80;;;;;;1926793;73;21550;-79
2022/02/03 17:15:00;;;;;;;12.25;8.75;;;25.30;82.70;;;;;;1925145;74;21147;-81
2022/02/03 17:17:30;;;;;;;12.80;8.90;;;25.30;82.80;;;;;;1934691;74;21153;-81
2022/02/03 17:20:01;;;;;;;10.40;8.85;;;25.30;83.00;;;;;;1901565;75;21068;-80
2022/02/03 17:22:39;;;;;;;14.20;8.65;;;25.20;82.80;;;;;;1931308;74;21128;-81
2022/02/03 17:27:45;;;;;;;11.90;9.00;;;25.10;82.50;;;;;;1902170;75;21185;-81
2022/02/03 17:30:19;;;;;;;9.58;8.00;;;25.10;82.80;;;;;;1901473;74;21151;-82
2022/02/03 18:31:09;;;;;;;10.10;8.23;;;24.70;84.30;;;;;;1982882;72;21062;-80
2022/02/03 18:34:01;;;;;;;11.65;9.50;;;24.70;84.30;;;;;;1970910;72;21096;-80
2022/02/03 18:47:00;;;;;;;13.18;9.00;;;24.60;84.90;;;;;;1973254;72;21651;-80
2022/02/03 18:51:33;;;;;;;11.60;9.43;;;24.50;84.90;;;;;;1972255;73;21120;-81
2022/02/03 18:54:11;;;;;;;11.90;8.83;;;24.50;85.00;;;;;;1980882;72;21063;-80
2022/02/03 19:01:51;;;;;;;10.15;8.53;;;24.50;84.80;;;;;;1964666;73;21233;-81
2022/02/03 19:24:50;;;;;;;12.70;8.65;;;24.30;84.60;;;;;;1915359;74;22206;-82
2022/02/03 19:27:23;;;;;;;13.18;8.93;;;24.20;84.70;;;;;;1841541;75;21161;-81
2022/02/03 20:05:22;;;;;;;10.18;7.58;;;24.10;85.50;;;;;;1952999;71;21117;-81
2022/02/03 20:07:53;;;;;;;11.22;7.22;;;24.00;85.20;;;;;;1959806;72;21151;-80
2022/02/03 20:10:20;;;;;;;10.38;7.97;;;24.00;84.90;;;;;;1958871;73;21172;-80
2022/02/03 20:12:43;;;;;;;11.78;7.83;;;24.00;84.90;;;;;;1959245;71;21224;-81
2022/02/03 20:15:18;;;;;;;11.50;7.75;;;24.00;84.80;;;;;;1963044;71;21159;-81
2022/02/03 20:17:46;;;;;;;14.40;8.60;;;23.90;85.50;;;;;;1961852;71;21182;-81
2022/02/03 20:20:17;;;;;;;17.12;8.58;;;23.90;86.50;;;;;;1960528;73;21559;-81
2022/02/03 20:22:49;;;;;;;11.70;8.23;;;23.90;86.60;;;;;;1965595;71;21195;-81
2022/02/03 20:25:20;;;;;;;13.53;8.13;;;23.90;87.10;;;;;;1964136;71;21114;-80
2022/02/03 20:27:50;;;;;;;14.33;8.18;;;23.90;86.50;;;;;;1961175;71;21128;-80
2022/02/03 20:30:22;;;;;;;12.05;7.78;;;23.80;86.90;;;;;;1938506;73;21160;-79
2022/02/03 20:32:53;;;;;;;11.70;7.55;;;23.80;87.10;;;;;;1955889;71;21058;-81
2022/02/03 20:35:24;;;;;;;10.65;7.58;;;23.70;87.00;;;;;;1947105;71;21154;-81
2022/02/03 20:37:55;;;;;;;12.37;7.47;;;23.70;86.80;;;;;;1959296;71;21150;-81
2022/02/03 20:40:25;;;;;;;11.45;7.95;;;23.70;86.90;;;;;;1968622;73;21567;-80
2022/02/03 20:42:56;;;;;;;12.43;7.83;;;23.70;86.50;;;;;;1951076;72;21063;-80
2022/02/03 20:45:27;;;;;;;10.43;7.42;;;23.60;87.20;;;;;;1962331;71;21151;-80
2022/02/03 20:47:58;;;;;;;10.85;8.05;;;23.70;87.30;;;;;;1946435;71;21083;-80
2022/02/03 20:50:29;;;;;;;9.15;6.75;;;23.60;87.30;;;;;;1946761;71;21117;-81
2022/02/03 20:52:59;;;;;;;10.30;7.05;;;23.60;87.30;;;;;;1968328;71;21125;-80
2022/02/03 20:55:32;;;;;;;9.40;6.75;;;23.60;87.20;;;;;;1968171;71;21181;-81
2022/02/03 20:58:03;;;;;;;8.70;6.47;;;23.60;86.90;;;;;;1959551;71;21114;-81
2022/02/03 21:00:45;;;;;;;8.83;5.85;;;23.60;86.60;;;;;;1967847;71;21056;-80
2022/02/03 21:03:15;;;;;;;8.23;5.75;;;23.50;86.20;;;;;;1896295;74;21212;-81
2022/02/03 21:05:38;;;;;;;8.50;5.87;;;23.50;86.30;;;;;;1886705;73;21114;-81
2022/02/03 21:08:09;;;;;;;8.85;5.90;;;23.50;86.50;;;;;;1880817;75;21123;-81
2022/02/03 21:10:39;;;;;;;8.80;6.00;;;23.50;86.90;;;;;;1905557;73;21139;-81
2022/02/03 21:13:10;;;;;;;8.95;5.62;;;23.50;87.00;;;;;;1881472;75;21566;-81
2022/02/03 21:15:42;;;;;;;9.10;5.37;;;23.50;86.90;;;;;;1890290;74;21158;-81
2022/02/03 21:18:15;;;;;;;8.98;5.97;;;23.50;87.00;;;;;;1888904;74;21133;-82
2022/02/03 21:20:47;;;;;;;7.95;5.53;;;23.40;86.90;;;;;;1948011;72;21215;-81
2022/02/03 21:23:18;;;;;;;9.33;5.55;;;23.40;87.00;;;;;;1957577;72;21220;-81
2022/02/03 21:25:54;;;;;;;8.45;6.00;;;23.50;86.90;;;;;;1969332;72;21056;-81
2022/02/03 21:28:25;;;;;;;8.70;5.83;;;23.40;86.50;;;;;;1975182;71;21200;-81
2022/02/03 21:30:57;;;;;;;8.63;5.40;;;23.40;86.70;;;;;;1943071;72;21164;-81
2022/02/03 21:33:32;;;;;;;7.83;4.72;;;23.40;86.50;;;;;;1948261;71;21035;-81
2022/02/03 21:36:10;;;;;;;8.55;5.65;;;23.40;86.60;;;;;;1916931;73;21095;-82
2022/02/03 21:38:39;;;;;;;7.47;5.10;;;23.30;86.60;;;;;;1880799;75;21181;-81
2022/02/03 21:41:11;;;;;;;6.83;4.85;;;23.30;86.90;;;;;;1925422;74;21245;-80
2022/02/03 21:43:43;;;;;;;7.08;4.87;;;23.30;86.10;;;;;;1938096;73;21078;-81
2022/02/03 21:46:14;;;;;;;8.35;5.25;;;23.30;86.20;;;;;;1876600;75;21115;-81
2022/02/03 21:48:49;;;;;;;8.58;5.50;;;23.20;86.50;;;;;;1883070;74;21127;-82
2022/02/03 21:51:22;;;;;;;10.13;7.22;;;23.20;86.60;;;;;;1882254;75;21084;-82
2022/02/03 21:53:52;;;;;;;7.83;5.22;;;23.20;86.60;;;;;;1892143;74;21118;-81
2022/02/03 21:56:23;;;;;;;7.95;5.87;;;23.10;86.30;;;;;;1889008;74;21143;-81
2022/02/03 21:58:56;;;;;;;8.00;5.45;;;23.20;86.30;;;;;;1889129;74;21123;-80
2022/02/03 22:01:28;;;;;;;8.08;5.60;;;23.10;86.30;;;;;;1899998;75;21725;-81
2022/02/03 22:03:58;;;;;;;8.58;5.67;;;23.10;87.50;;;;;;1882734;75;21065;-82
2022/02/03 22:06:29;;;;;;;7.70;5.45;;;23.00;86.30;;;;;;1892427;74;22429;-82
2022/02/03 22:09:00;;;;;;;9.93;5.40;;;23.00;86.40;;;;;;1897607;75;21212;-81
2022/02/03 22:11:34;;;;;;;7.28;5.25;;;23.00;86.50;;;;;;1878454;75;21081;-81
2022/02/03 22:14:05;;;;;;;6.80;5.60;;;23.00;86.20;;;;;;1880737;74;21144;-81
2022/02/03 22:16:36;;;;;;;9.73;6.42;;;23.00;86.10;;;;;;1893551;76;21128;-81
2022/02/03 22:19:08;;;;;;;7.33;5.17;;;23.00;86.10;;;;;;1877384;75;21732;-81
2022/02/03 22:21:50;;;;;;;6.53;4.90;;;23.00;86.00;;;;;;1944320;73;21087;-82
2022/02/03 22:38:32;;;;;;;9.23;5.25;;;23.00;85.80;;;;;;1934345;74;21122;-82
2022/02/03 22:40:10;;;;;;;6.35;4.87;;;22.90;85.30;;;;;;1902517;73;21176;-82
2022/02/03 22:44:36;;;;;;;7.83;4.92;;;22.90;85.70;;;;;;1949774;71;21209;-82
2022/02/03 22:49:30;;;;;;;8.85;6.00;;;23.00;85.60;;;;;;1905153;73;21151;-83
2022/02/03 22:52:01;;;;;;;8.60;6.03;;;23.00;85.70;;;;;;1901369;74;21485;-82
2022/02/03 22:54:32;;;;;;;7.87;4.97;;;22.90;85.80;;;;;;1933507;73;21142;-81
2022/02/03 22:57:03;;;;;;;8.50;6.03;;;22.90;85.60;;;;;;1945126;71;21180;-82
2022/02/03 23:02:05;;;;;;;9.38;5.58;;;22.80;85.70;;;;;;1939578;71;21135;-81
2022/02/03 23:04:38;;;;;;;9.98;6.17;;;22.80;85.80;;;;;;1966955;71;21189;-82
2022/02/03 23:07:22;;;;;;;9.60;7.00;;;22.80;85.80;;;;;;1965734;71;21150;-82
2022/02/03 23:09:53;;;;;;;10.15;6.35;;;22.70;85.50;;;;;;1950126;72;21137;-82
2022/02/03 23:12:17;;;;;;;13.58;8.38;;;22.70;85.70;;;;;;1948077;71;21141;-82
2022/02/03 23:22:20;;;;;;;9.40;5.22;;;22.60;85.20;;;;;;1958636;72;21154;-82
2022/02/03 23:24:53;;;;;;;10.43;5.87;;;22.60;85.30;;;;;;1951626;71;21055;-82
2022/02/03 23:29:56;;;;;;;10.88;6.85;;;22.60;85.60;;;;;;1964926;72;21189;-82
2022/02/03 23:32:29;;;;;;;10.98;6.45;;;22.60;85.70;;;;;;1944543;72;21539;-82
2022/02/03 23:37:38;;;;;;;20.90;13.28;;;22.60;86.40;;;;;;1949386;71;21629;-82
